createdAt,value
2022-08-26T00:00:11.451Z,101088.41
2022-08-26T00:01:15.449Z,101093.06
2022-08-26T00:02:20.566Z,101090.59
2022-08-26T00:03:24.121Z,101098.47
2022-08-26T00:04:27.375Z,101098.78
2022-08-26T00:05:29.498Z,101086.22
2022-08-26T00:06:33.631Z,101088.16
2022-08-26T00:07:37.433Z,101085.44
2022-08-26T00:08:41.334Z,101102.81
2022-08-26T00:09:47.342Z,101092.78
2022-08-26T00:10:51.060Z,101093.84
2022-08-26T00:11:54.519Z,101091.38
2022-08-26T00:12:57.806Z,101091.38
2022-08-26T00:13:59.973Z,101097.66
2022-08-26T00:15:03.141Z,101098.47
2022-08-26T00:16:08.883Z,101087.03
2022-08-26T00:17:14.897Z,101090.59
2022-08-26T00:18:22.144Z,101092.22
2022-08-26T00:19:25.759Z,101091.38
2022-08-26T00:20:31.217Z,101088.94
2022-08-26T00:21:34.554Z,101089.19
2022-08-26T00:22:38.344Z,101089.75
2022-08-26T00:23:41.596Z,101088.13
2022-08-26T00:24:47.944Z,101070.97
2022-08-26T00:25:51.680Z,101079.97
2022-08-26T00:26:53.898Z,101088.13
2022-08-26T00:27:57.622Z,101084.84
2022-08-26T00:28:59.752Z,101082.94
2022-08-26T00:30:05.282Z,101090.56
2022-08-26T00:31:10.966Z,101081.31
2022-08-26T00:32:13.420Z,101085.91
2022-08-26T00:33:18.428Z,101075.31
2022-08-26T00:34:20.660Z,101087.00
2022-08-26T00:35:24.762Z,101080.75
2022-08-26T00:36:30.108Z,101079.94
2022-08-26T00:37:33.483Z,101079.94
2022-08-26T00:38:38.943Z,101078.28
2022-08-26T00:39:41.338Z,101083.72
2022-08-26T00:40:47.168Z,101076.13
2022-08-26T00:41:50.511Z,101082.91
2022-08-26T00:42:54.270Z,101087.56
2022-08-26T00:43:57.410Z,101084.84
2022-08-26T00:45:00.809Z,101088.63
2022-08-26T00:46:09.176Z,101081.56
2022-08-26T00:47:21.781Z,101078.84
2022-08-26T00:48:31.752Z,101087.00
2022-08-26T00:49:38.927Z,101078.84
2022-08-26T00:50:49.440Z,101079.94
2022-08-26T00:51:55.794Z,101079.09
2022-08-26T00:53:01.279Z,101082.66
2022-08-26T00:54:10.735Z,101077.44
2022-08-26T00:55:20.453Z,101059.16
2022-08-26T00:56:29.670Z,101075.56
2022-08-26T00:57:34.197Z,101079.09
2022-08-26T00:58:38.804Z,101073.94
2022-08-26T00:59:45.670Z,101078.28
2022-08-26T01:00:48.127Z,101077.44
2022-08-26T01:01:52.039Z,101082.88
2022-08-26T01:02:56.148Z,101075.56
2022-08-26T01:04:00.917Z,101079.38
2022-08-26T01:05:05.969Z,101074.72
2022-08-26T01:06:12.616Z,101083.97
2022-08-26T01:07:16.280Z,101074.72
2022-08-26T01:08:19.402Z,101083.97
2022-08-26T01:09:24.570Z,101073.94
2022-08-26T01:10:31.294Z,101071.22
2022-08-26T01:11:34.159Z,101076.66
2022-08-26T01:12:42.395Z,101073.38
2022-08-26T01:13:44.897Z,101064.94
2022-08-26T01:14:48.989Z,101070.66
2022-08-26T01:15:54.963Z,101071.47
2022-08-26T01:16:58.566Z,101067.94
2022-08-26T01:18:01.735Z,101070.66
2022-08-26T01:19:11.255Z,101072.28
2022-08-26T01:20:27.561Z,101076.91
2022-08-26T01:21:40.729Z,101078.25
2022-08-26T01:22:53.311Z,101072.81
2022-08-26T01:23:57.857Z,101069.25
2022-08-26T01:25:03.569Z,101074.69
2022-08-26T01:26:19.695Z,101071.97
2022-08-26T01:27:22.630Z,101075.78
2022-08-26T01:28:30.670Z,101080.41
2022-08-26T01:29:35.056Z,101075.78
2022-08-26T01:30:40.866Z,101064.91
2022-08-26T01:31:46.591Z,101068.41
2022-08-26T01:32:51.637Z,101078.78
2022-08-26T01:34:02.084Z,101074.97
2022-08-26T01:35:05.957Z,101074.16
2022-08-26T01:36:08.662Z,101078.78
2022-08-26T01:37:15.908Z,101078.78
2022-08-26T01:38:20.019Z,101080.91
2022-08-26T01:39:23.277Z,101077.13
2022-08-26T01:40:29.940Z,101083.63
2022-08-26T01:41:33.826Z,101083.91
2022-08-26T01:42:36.165Z,101079.28
2022-08-26T01:43:41.326Z,101072.19
2022-08-26T01:44:47.142Z,101074.13
2022-08-26T01:45:54.624Z,101076.84
2022-08-26T01:46:58.932Z,101076.28
2022-08-26T01:48:05.566Z,101071.66
2022-08-26T01:49:08.782Z,101079.81
2022-08-26T01:50:20.134Z,101079.25
2022-08-26T01:51:37.285Z,101073.25
2022-08-26T01:52:43.670Z,101077.06
2022-08-26T01:53:48.310Z,101070.81
2022-08-26T01:54:51.648Z,101074.59
2022-08-26T01:55:59.439Z,101077.56
2022-08-26T01:57:03.103Z,101074.06
2022-08-26T01:58:10.452Z,101068.88
2022-08-26T01:59:16.887Z,101067.25
2022-08-26T02:00:20.776Z,101068.34
2022-08-26T02:01:24.849Z,101070.22
2022-08-26T02:02:32.576Z,101076.19
2022-08-26T02:03:42.287Z,101076.19
2022-08-26T02:04:53.689Z,101078.34
2022-08-26T02:05:59.185Z,101071.00
2022-08-26T02:07:06.083Z,101073.72
2022-08-26T02:08:10.403Z,101067.72
2022-08-26T02:09:16.379Z,101073.97
2022-08-26T02:10:18.600Z,101067.97
2022-08-26T02:11:24.134Z,101068.25
2022-08-26T02:12:28.338Z,101070.97
2022-08-26T02:13:34.041Z,101063.88
2022-08-26T02:14:43.790Z,101073.13
2022-08-26T02:15:48.619Z,101075.28
2022-08-26T02:16:53.209Z,101061.94
2022-08-26T02:17:57.437Z,101064.66
2022-08-26T02:19:02.510Z,101070.38
2022-08-26T02:20:06.850Z,101067.66
2022-08-26T02:21:17.979Z,101066.03
2022-08-26T02:22:22.675Z,101076.06
2022-08-26T02:23:28.296Z,101068.19
2022-08-26T02:24:49.107Z,101064.38
2022-08-26T02:25:57.931Z,101066.53
2022-08-26T02:27:01.197Z,101066.78
2022-08-26T02:28:05.014Z,101070.34
2022-08-26T02:29:13.467Z,101067.88
2022-08-26T02:30:21.709Z,101069.78
2022-08-26T02:31:24.285Z,101075.47
2022-08-26T02:32:27.456Z,101067.31
2022-08-26T02:33:30.009Z,101062.97
2022-08-26T02:34:34.898Z,101067.03
2022-08-26T02:35:38.136Z,101065.94
2022-08-26T02:36:41.912Z,101067.59
2022-08-26T02:37:44.310Z,101068.41
2022-08-26T02:38:47.554Z,101065.69
2022-08-26T02:39:51.362Z,101061.06
2022-08-26T02:40:55.378Z,101068.41
2022-08-26T02:41:59.162Z,101062.97
2022-08-26T02:43:02.502Z,101060.00
2022-08-26T02:44:07.149Z,101061.88
2022-08-26T02:45:11.756Z,101066.22
2022-08-26T02:46:28.005Z,101068.16
2022-08-26T02:47:34.293Z,101054.56
2022-08-26T02:48:39.840Z,101060.00
2022-08-26T02:49:44.430Z,101058.06
2022-08-26T02:50:49.557Z,101054.56
2022-08-26T02:51:53.583Z,101062.72
2022-08-26T02:52:56.303Z,101062.16
2022-08-26T02:53:59.495Z,101057.28
2022-08-26T02:55:06.433Z,101058.34
2022-08-26T02:56:10.489Z,101058.34
2022-08-26T02:57:12.807Z,101057.53
2022-08-26T02:58:16.352Z,101051.28
2022-08-26T02:59:18.571Z,101057.78
2022-08-26T03:00:21.994Z,101049.34
2022-08-26T03:01:30.001Z,101056.16
2022-08-26T03:02:33.267Z,101055.31
2022-08-26T03:03:35.876Z,101049.34
2022-08-26T03:04:40.019Z,101050.41
2022-08-26T03:05:42.694Z,101047.97
2022-08-26T03:06:47.049Z,101038.19
2022-08-26T03:07:56.168Z,101050.38
2022-08-26T03:08:58.392Z,101043.31
2022-08-26T03:10:01.814Z,101046.31
2022-08-26T03:11:13.315Z,101038.66
2022-08-26T03:12:16.955Z,101041.38
2022-08-26T03:13:21.010Z,101042.47
2022-08-26T03:14:24.842Z,101042.72
2022-08-26T03:15:26.970Z,101037.56
2022-08-26T03:16:32.938Z,101044.06
2022-08-26T03:17:35.142Z,101043.50
2022-08-26T03:18:39.166Z,101045.66
2022-08-26T03:19:41.361Z,101038.56
2022-08-26T03:20:44.813Z,101036.94
2022-08-26T03:21:47.247Z,101041.03
2022-08-26T03:22:51.526Z,101033.09
2022-08-26T03:23:53.724Z,101032.53
2022-08-26T03:24:56.847Z,101038.25
2022-08-26T03:25:59.011Z,101035.75
2022-08-26T03:27:07.275Z,101037.94
2022-08-26T03:28:09.806Z,101030.84
2022-08-26T03:29:32.926Z,101037.38
2022-08-26T03:30:44.701Z,101039.53
2022-08-26T03:31:47.767Z,101042.50
2022-08-26T03:32:50.969Z,101030.00
2022-08-26T03:33:57.642Z,101036.50
2022-08-26T03:35:03.003Z,101034.03
2022-08-26T03:36:07.762Z,101030.75
2022-08-26T03:37:10.950Z,101028.06
2022-08-26T03:38:13.898Z,101032.69
2022-08-26T03:39:17.136Z,101032.38
2022-08-26T03:40:20.469Z,101025.84
2022-08-26T03:41:23.786Z,101029.66
2022-08-26T03:42:27.332Z,101030.72
2022-08-26T03:43:30.780Z,101021.78
2022-08-26T03:44:32.977Z,101025.81
2022-08-26T03:45:37.498Z,101029.63
2022-08-26T03:46:40.962Z,101027.97
2022-08-26T03:47:44.696Z,101027.41
2022-08-26T03:48:48.227Z,101029.31
2022-08-26T03:49:51.889Z,101027.66
2022-08-26T03:50:55.193Z,101031.72
2022-08-26T03:51:57.737Z,101036.06
2022-08-26T03:53:01.113Z,101029.28
2022-08-26T03:54:05.613Z,101029.28
2022-08-26T03:55:12.725Z,101027.63
2022-08-26T03:56:15.032Z,101023.28
2022-08-26T03:57:18.346Z,101024.38
2022-08-26T03:58:24.340Z,101051.50
2022-08-26T03:59:28.117Z,101020.81
2022-08-26T04:00:30.818Z,101026.50
2022-08-26T04:01:34.350Z,101016.97
2022-08-26T04:02:36.580Z,101017.81
2022-08-26T04:04:00.541Z,101030.53
2022-08-26T04:05:04.138Z,101017.25
2022-08-26T04:06:06.909Z,101022.94
2022-08-26T04:07:10.338Z,101020.47
2022-08-26T04:08:12.455Z,101017.75
2022-08-26T04:09:20.716Z,101020.72
2022-08-26T04:10:29.284Z,101022.63
2022-08-26T04:11:34.377Z,101021.78
2022-08-26T04:12:39.021Z,101018.28
2022-08-26T04:13:42.517Z,101014.16
2022-08-26T04:14:45.704Z,101018.53
2022-08-26T04:15:47.931Z,101016.09
2022-08-26T04:16:52.237Z,101007.13
2022-08-26T04:17:55.785Z,101010.88
2022-08-26T04:18:59.061Z,101016.84
2022-08-26T04:20:02.319Z,101011.97
2022-08-26T04:21:04.991Z,101019.28
2022-08-26T04:22:11.405Z,101008.69
2022-08-26T04:23:13.852Z,101008.69
2022-08-26T04:24:22.631Z,101014.13
2022-08-26T04:25:24.840Z,101007.91
2022-08-26T04:26:28.157Z,101016.25
2022-08-26T04:27:31.379Z,101002.69
2022-08-26T04:28:33.707Z,101006.75
2022-08-26T04:29:39.150Z,101011.94
2022-08-26T04:30:41.357Z,101011.94
2022-08-26T04:31:46.947Z,101002.97
2022-08-26T04:32:51.411Z,101010.31
2022-08-26T04:33:53.798Z,101010.31
2022-08-26T04:34:57.618Z,101001.34
2022-08-26T04:36:01.527Z,101007.84
2022-08-26T04:37:05.652Z,101002.41
2022-08-26T04:38:08.797Z,101018.44
2022-08-26T04:39:14.962Z,100994.28
2022-08-26T04:40:17.205Z,101001.59
2022-08-26T04:41:22.310Z,101004.31
2022-08-26T04:42:26.158Z,100999.72
2022-08-26T04:43:30.490Z,101000.50
2022-08-26T04:44:36.877Z,101002.16
2022-08-26T04:45:41.907Z,101009.72
2022-08-26T04:46:45.316Z,101000.50
2022-08-26T04:47:47.907Z,100997.78
2022-08-26T04:48:52.600Z,100993.19
2022-08-26T04:49:57.569Z,101003.22
2022-08-26T04:51:00.032Z,100998.34
2022-08-26T04:52:03.651Z,101005.41
2022-08-26T04:53:07.185Z,101003.78
2022-08-26T04:54:10.691Z,100999.75
2022-08-26T04:55:13.547Z,101002.47
2022-08-26T04:56:17.217Z,101005.97
2022-08-26T04:57:19.421Z,101004.09
2022-08-26T04:58:24.537Z,101004.09
2022-08-26T04:59:27.564Z,101001.38
2022-08-26T05:00:31.836Z,101007.63
2022-08-26T05:01:39.463Z,101006.53
2022-08-26T05:02:42.864Z,101013.59
2022-08-26T05:03:45.206Z,101002.47
2022-08-26T05:04:48.414Z,101009.00
2022-08-26T05:05:54.728Z,101004.41
2022-08-26T05:07:02.226Z,101011.19
2022-08-26T05:08:04.794Z,101013.09
2022-08-26T05:09:07.988Z,101014.72
2022-08-26T05:10:10.423Z,101012.84
2022-08-26T05:11:14.159Z,101016.94
2022-08-26T05:12:16.681Z,101020.47
2022-08-26T05:13:21.994Z,101012.06
2022-08-26T05:14:25.063Z,101020.78
2022-08-26T05:15:28.271Z,101019.69
2022-08-26T05:16:31.456Z,101015.91
2022-08-26T05:17:36.354Z,101016.22
2022-08-26T05:18:45.763Z,101015.97
2022-08-26T05:19:48.778Z,101016.50
2022-08-26T05:20:55.077Z,101013.56
2022-08-26T05:21:58.197Z,101014.91
2022-08-26T05:23:00.789Z,101019.03
2022-08-26T05:24:04.775Z,101012.25
2022-08-26T05:25:07.667Z,101018.25
2022-08-26T05:26:10.892Z,101013.38
2022-08-26T05:27:13.568Z,101011.75
2022-08-26T05:28:20.267Z,101012.31
2022-08-26T05:29:23.520Z,101011.81
2022-08-26T05:30:25.638Z,101014.25
2022-08-26T05:31:31.427Z,101015.38
2022-08-26T05:32:36.175Z,101013.22
2022-08-26T05:33:38.362Z,101013.53
2022-08-26T05:34:44.967Z,101019.28
2022-08-26T05:35:48.239Z,101010.88
2022-08-26T05:36:52.552Z,101007.91
2022-08-26T05:37:54.786Z,101024.50
2022-08-26T05:38:58.266Z,101014.16
2022-08-26T05:40:02.905Z,101010.13
2022-08-26T05:41:15.598Z,101009.84
2022-08-26T05:42:20.091Z,101010.16
2022-08-26T05:43:22.255Z,101019.66
2022-08-26T05:44:25.502Z,101014.78
2022-08-26T05:45:27.920Z,101011.81
2022-08-26T05:46:31.759Z,101011.06
2022-08-26T05:47:35.583Z,101014.28
2022-08-26T05:50:40.376Z,101015.97
2022-08-26T05:51:45.148Z,101019.25
2022-08-26T05:52:47.538Z,101012.47
2022-08-26T05:53:54.922Z,101016.84
2022-08-26T05:54:57.360Z,101014.66
2022-08-26T05:56:00.558Z,101025.28
2022-08-26T05:57:02.842Z,101026.38
2022-08-26T05:58:07.590Z,101023.13
2022-08-26T05:59:15.330Z,101032.41
2022-08-26T06:00:17.441Z,101024.28
2022-08-26T06:01:22.558Z,101033.28
2022-08-26T06:02:26.431Z,101027.31
2022-08-26T06:03:32.171Z,101038.75
2022-08-26T06:04:35.390Z,101029.28
2022-08-26T06:05:40.561Z,101028.25
2022-08-26T06:06:43.908Z,101032.63
2022-08-26T06:08:05.757Z,101026.09
2022-08-26T06:09:11.102Z,101024.78
2022-08-26T06:10:32.663Z,101030.22
2022-08-26T06:11:36.143Z,101026.41
2022-08-26T06:12:38.551Z,101028.34
2022-08-26T06:13:42.688Z,101017.19
2022-08-26T06:14:44.845Z,101024.00
2022-08-26T06:15:52.947Z,101025.09
2022-08-26T06:16:56.109Z,101018.03
2022-08-26T06:17:58.171Z,101016.41
2022-08-26T06:19:03.790Z,101026.47
2022-08-26T06:20:14.241Z,101033.84
2022-08-26T06:21:19.429Z,101024.88
2022-08-26T06:22:39.864Z,101030.63
2022-08-26T06:24:01.147Z,101020.81
2022-08-26T06:25:21.960Z,101020.81
2022-08-26T06:26:26.131Z,101020.81
2022-08-26T06:27:32.598Z,101020.00
2022-08-26T06:28:35.071Z,101008.56
2022-08-26T06:29:40.259Z,101024.34
2022-08-26T06:30:42.717Z,101015.63
2022-08-26T06:31:46.000Z,101020.28
2022-08-26T06:32:48.092Z,101014.53
2022-08-26T06:33:53.389Z,101015.63
2022-08-26T06:34:58.098Z,101022.72
2022-08-26T06:36:02.240Z,101023.22
2022-08-26T06:37:06.506Z,101017.78
2022-08-26T06:38:09.613Z,101015.88
2022-08-26T06:39:15.331Z,101014.00
2022-08-26T06:40:17.626Z,101011.00
2022-08-26T06:41:22.728Z,101016.72
2022-08-26T06:42:25.901Z,101012.31
2022-08-26T06:43:29.696Z,101019.69
2022-08-26T06:44:32.883Z,101023.75
2022-08-26T06:45:35.027Z,101023.47
2022-08-26T06:46:38.566Z,101042.03
2022-08-26T06:47:40.789Z,101035.19
2022-08-26T06:48:44.292Z,101027.81
2022-08-26T06:49:46.432Z,101036.00
2022-08-26T06:50:51.025Z,101039.78
2022-08-26T06:51:54.160Z,101031.06
2022-08-26T06:52:57.308Z,101037.31
2022-08-26T06:54:03.100Z,101039.50
2022-08-26T06:55:06.120Z,101034.88
2022-08-26T06:56:11.319Z,101041.44
2022-08-26T06:57:14.412Z,101040.31
2022-08-26T06:58:20.068Z,101037.03
2022-08-26T06:59:23.154Z,101031.88
2022-08-26T07:00:25.672Z,101040.06
2022-08-26T07:01:33.148Z,101039.25
2022-08-26T07:02:35.331Z,101042.00
2022-08-26T07:03:39.777Z,101042.50
2022-08-26T07:04:44.474Z,101049.59
2022-08-26T07:05:52.571Z,101049.88
2022-08-26T07:06:56.293Z,101055.59
2022-08-26T07:07:59.494Z,101048.47
2022-08-26T07:09:05.046Z,101047.91
2022-08-26T07:10:09.619Z,101050.09
2022-08-26T07:11:12.519Z,101055.56
2022-08-26T07:12:15.654Z,101054.16
2022-08-26T07:13:18.264Z,101055.00
2022-08-26T07:14:35.365Z,101060.16
2022-08-26T07:15:40.071Z,101054.72
2022-08-26T07:16:43.227Z,101041.91
2022-08-26T07:17:46.339Z,101050.59
2022-08-26T07:18:48.631Z,101053.88
2022-08-26T07:19:53.642Z,101044.59
2022-08-26T07:20:57.181Z,101044.59
2022-08-26T07:22:03.374Z,101047.34
2022-08-26T07:23:07.776Z,101046.50
2022-08-26T07:24:17.493Z,101050.06
2022-08-26T07:25:19.657Z,101052.78
2022-08-26T07:26:26.341Z,101050.06
2022-08-26T07:27:31.746Z,101052.78
2022-08-26T07:28:33.995Z,101051.69
2022-08-26T07:29:39.020Z,101055.53
2022-08-26T07:30:42.288Z,101053.88
2022-08-26T07:31:45.288Z,101062.06
2022-08-26T07:32:48.663Z,101057.69
2022-08-26T07:33:51.329Z,101055.53
2022-08-26T07:34:55.187Z,101057.13
2022-08-26T07:35:58.719Z,101063.16
2022-08-26T07:37:03.518Z,101054.97
2022-08-26T07:38:05.661Z,101053.56
2022-08-26T07:39:08.998Z,101057.66
2022-08-26T07:40:11.949Z,101053.81
2022-08-26T07:41:17.453Z,101057.91
2022-08-26T07:42:20.480Z,101056.53
2022-08-26T07:43:23.827Z,101051.63
2022-08-26T07:44:27.896Z,101056.50
2022-08-26T07:45:30.276Z,101050.50
2022-08-26T07:46:33.440Z,101057.34
2022-08-26T07:47:37.271Z,101060.59
2022-08-26T07:48:39.462Z,101061.94
2022-08-26T07:49:52.729Z,101061.66
2022-08-26T07:50:55.188Z,101062.50
2022-08-26T07:52:00.334Z,101060.31
2022-08-26T07:53:03.089Z,101067.38
2022-08-26T07:54:07.457Z,101071.47
2022-08-26T07:55:11.436Z,101063.00
2022-08-26T07:56:13.603Z,101063.25
2022-08-26T07:57:16.962Z,101067.88
2022-08-26T07:58:21.385Z,101077.13
2022-08-26T07:59:25.160Z,101081.47
2022-08-26T08:00:27.950Z,101083.34
2022-08-26T08:01:31.516Z,101071.28
2022-08-26T08:02:36.490Z,101080.25
2022-08-26T08:03:38.768Z,101072.84
2022-08-26T08:04:42.066Z,101071.97
2022-08-26T08:05:44.444Z,101072.78
2022-08-26T08:06:49.566Z,101075.22
2022-08-26T08:07:53.639Z,101068.91
2022-08-26T08:09:16.452Z,101067.47
2022-08-26T08:10:22.521Z,101071.28
2022-08-26T08:11:31.100Z,101067.66
2022-08-26T08:12:33.263Z,101067.34
2022-08-26T08:13:38.373Z,101073.88
2022-08-26T08:14:40.510Z,101079.28
2022-08-26T08:15:45.007Z,101077.59
2022-08-26T08:16:47.278Z,101084.13
2022-08-26T08:17:58.799Z,101079.69
2022-08-26T08:19:03.770Z,101080.78
2022-08-26T08:20:08.309Z,101076.38
2022-08-26T08:21:21.785Z,101084.81
2022-08-26T08:22:26.857Z,101087.50
2022-08-26T08:23:31.999Z,101084.50
2022-08-26T08:24:35.819Z,101088.56
2022-08-26T08:25:37.972Z,101085.53
2022-08-26T08:26:41.382Z,101090.72
2022-08-26T08:27:45.221Z,101089.91
2022-08-26T08:28:48.770Z,101099.50
2022-08-26T08:29:50.991Z,101095.44
2022-08-26T08:30:56.100Z,101086.66
2022-08-26T08:31:59.908Z,101087.81
2022-08-26T08:33:03.304Z,101089.50
2022-08-26T08:34:05.814Z,101087.66
2022-08-26T08:35:11.587Z,101089.03
2022-08-26T08:36:18.548Z,101087.41
2022-08-26T08:37:23.944Z,101084.97
2022-08-26T08:38:26.741Z,101090.69
2022-08-26T08:39:32.872Z,101089.06
2022-08-26T08:40:40.072Z,101085.00
2022-08-26T08:41:55.492Z,101089.13
2022-08-26T08:43:03.791Z,101085.84
2022-08-26T08:44:13.836Z,101088.03
2022-08-26T08:45:23.483Z,101080.72
2022-08-26T08:46:26.574Z,101090.03
2022-08-26T08:47:34.358Z,101079.69
2022-08-26T08:48:43.451Z,101088.44
2022-08-26T08:49:47.077Z,101088.72
2022-08-26T08:50:53.947Z,101092.56
2022-08-26T08:52:00.590Z,101093.94
2022-08-26T08:53:12.380Z,101085.22
2022-08-26T08:54:17.995Z,101093.69
2022-08-26T08:55:31.409Z,101091.53
2022-08-26T08:56:38.316Z,101087.75
2022-08-26T08:58:02.287Z,101091.03
2022-08-26T08:59:14.053Z,101080.69
2022-08-26T09:00:19.811Z,101076.31
2022-08-26T09:01:56.533Z,101068.41
2022-08-26T09:03:03.965Z,101072.22
2022-08-26T09:04:25.876Z,101066.22
2022-08-26T09:05:34.251Z,101067.31
2022-08-26T09:06:36.446Z,101068.13
2022-08-26T09:07:47.914Z,101068.97
2022-08-26T09:08:52.753Z,101063.50
2022-08-26T09:09:59.169Z,101069.75
2022-08-26T09:11:05.191Z,101068.66
2022-08-26T09:12:14.662Z,101070.56
2022-08-26T09:13:26.126Z,101065.94
2022-08-26T09:14:32.028Z,101069.50
2022-08-26T09:15:48.240Z,101066.75
2022-08-26T09:17:02.603Z,101075.78
2022-08-26T09:18:11.146Z,101074.97
2022-08-26T09:19:24.690Z,101078.53
2022-08-26T09:20:49.816Z,101067.31
2022-08-26T09:21:57.076Z,101070.88
2022-08-26T09:23:00.585Z,101063.75
2022-08-26T09:24:03.818Z,101063.25
2022-08-26T09:25:11.172Z,101067.06
2022-08-26T09:26:20.203Z,101067.34
2022-08-26T09:27:37.819Z,101062.16
2022-08-26T09:28:46.068Z,101065.19
2022-08-26T09:29:50.414Z,101065.47
2022-08-26T09:31:03.099Z,101073.41
2022-08-26T09:32:21.101Z,101058.66
2022-08-26T09:33:29.403Z,101051.84
2022-08-26T09:34:33.506Z,101056.78
2022-08-26T09:35:39.530Z,101055.94
2022-08-26T09:36:45.369Z,101054.34
2022-08-26T09:38:52.894Z,101041.53
2022-08-26T09:40:11.275Z,101050.00
2022-08-26T09:41:26.206Z,101041.28
2022-08-26T09:42:28.653Z,101045.91
2022-08-26T09:43:32.552Z,101035.00
2022-08-26T09:44:36.584Z,101040.47
2022-08-26T09:45:50.107Z,101041.56
2022-08-26T09:46:59.037Z,101038.84
2022-08-26T09:48:02.266Z,101037.72
2022-08-26T09:49:35.868Z,101040.47
2022-08-26T09:50:39.835Z,101039.91
2022-08-26T09:51:44.319Z,101044.31
2022-08-26T09:53:09.911Z,101046.22
2022-08-26T09:54:30.237Z,101045.38
2022-08-26T09:55:33.707Z,101051.66
2022-08-26T09:56:39.762Z,101043.47
2022-08-26T09:57:48.971Z,101042.66
2022-08-26T09:58:52.447Z,101048.13
2022-08-26T09:59:55.066Z,101041.56
2022-08-26T10:01:01.540Z,101041.56
2022-08-26T10:02:21.286Z,101044.31
2022-08-26T10:03:28.409Z,101039.63
2022-08-26T10:04:34.182Z,101033.38
2022-08-26T10:05:42.763Z,101036.91
2022-08-26T10:06:57.079Z,101036.63
2022-08-26T10:08:01.865Z,101033.09
2022-08-26T10:09:09.890Z,101031.97
2022-08-26T10:10:22.595Z,101034.72
2022-08-26T10:11:34.572Z,101026.50
2022-08-26T10:12:48.248Z,101039.09
2022-08-26T10:13:57.925Z,101027.88
2022-08-26T10:15:03.489Z,101025.16
2022-08-26T10:16:14.713Z,101035.25
2022-08-26T10:17:22.066Z,101021.31
2022-08-26T10:18:31.931Z,101019.09
2022-08-26T10:19:55.516Z,101016.38
2022-08-26T10:21:07.419Z,101016.09
2022-08-26T10:22:18.174Z,101011.16
2022-08-26T10:23:23.387Z,101008.44
2022-08-26T10:24:32.395Z,101012.78
2022-08-26T10:25:42.443Z,101005.41
2022-08-26T10:26:59.856Z,101000.47
2022-08-26T10:28:11.086Z,101001.00
2022-08-26T10:29:19.937Z,100995.53
2022-08-26T10:30:30.973Z,100991.41
2022-08-26T10:31:40.971Z,100994.16
2022-08-26T10:32:48.940Z,100993.31
2022-08-26T10:33:55.468Z,100991.13
2022-08-26T10:35:01.951Z,100991.66
2022-08-26T10:36:36.441Z,100995.72
2022-08-26T10:37:50.021Z,100990.25
2022-08-26T10:38:53.451Z,100983.72
2022-08-26T10:40:00.650Z,101000.09
2022-08-26T10:41:10.500Z,100991.63
2022-08-26T10:42:18.391Z,100997.91
2022-08-26T10:43:26.667Z,100990.50
2022-08-26T10:44:34.450Z,100998.44
2022-08-26T10:45:43.903Z,100997.38
2022-08-26T10:46:51.977Z,101003.09
2022-08-26T10:47:57.736Z,100994.63
2022-08-26T10:49:06.513Z,100999.28
2022-08-26T10:50:11.235Z,101004.16
2022-08-26T10:51:18.902Z,100999.81
2022-08-26T10:52:29.757Z,101001.19
2022-08-26T10:53:44.410Z,100988.94
2022-08-26T10:54:53.820Z,100987.56
2022-08-26T10:56:04.628Z,100997.16
2022-08-26T10:57:15.236Z,101000.19
2022-08-26T10:58:33.123Z,100984.38
2022-08-26T10:59:50.329Z,100998.28
2022-08-26T11:01:22.841Z,100990.09
2022-08-26T11:02:34.713Z,100989.59
2022-08-26T11:03:44.469Z,100995.84
2022-08-26T11:04:54.315Z,100992.84
2022-08-26T11:06:25.579Z,100989.00
2022-08-26T11:07:40.497Z,100992.84
2022-08-26T11:08:48.168Z,100993.38
2022-08-26T11:09:50.556Z,100984.88
2022-08-26T11:10:59.232Z,100984.09
2022-08-26T11:12:09.976Z,100985.72
2022-08-26T11:13:13.565Z,100984.03
2022-08-26T11:14:44.674Z,100988.09
2022-08-26T11:16:01.171Z,100984.78
2022-08-26T11:17:05.247Z,100976.03
2022-08-26T11:18:10.614Z,100984.50
2022-08-26T11:20:02.037Z,100973.81
2022-08-26T11:21:52.695Z,100977.84
2022-08-26T11:22:59.594Z,100983.56
2022-08-26T11:24:01.846Z,100979.94
2022-08-26T11:25:09.560Z,100970.06
2022-08-26T11:26:18.895Z,100974.97
2022-08-26T11:28:03.352Z,100968.31
2022-08-26T11:29:13.114Z,100966.66
2022-08-26T11:30:47.734Z,100969.63
2022-08-26T11:32:00.293Z,100959.41
2022-08-26T11:33:05.492Z,100965.13
2022-08-26T11:34:14.301Z,100961.84
2022-08-26T11:35:52.159Z,100959.09
2022-08-26T11:37:01.569Z,100954.72
2022-08-26T11:38:18.050Z,100953.91
2022-08-26T11:39:25.702Z,100949.84
2022-08-26T11:40:33.080Z,100945.47
2022-08-26T11:41:35.387Z,100949.31
2022-08-26T11:42:43.249Z,100946.56
2022-08-26T11:43:49.375Z,100943.84
2022-08-26T11:44:52.582Z,100946.28
2022-08-26T11:46:01.276Z,100942.75
2022-08-26T11:47:11.417Z,100933.66
2022-08-26T11:48:18.876Z,100942.41
2022-08-26T11:49:21.146Z,100933.31
2022-08-26T11:50:27.307Z,100930.81
2022-08-26T11:51:31.615Z,100932.94
2022-08-26T11:52:36.643Z,100931.00
2022-08-26T11:53:41.293Z,100921.09
2022-08-26T11:55:03.768Z,100929.16
2022-08-26T11:56:11.550Z,100914.53
2022-08-26T11:57:15.002Z,100923.09
2022-08-26T11:58:20.323Z,100911.44
2022-08-26T11:59:38.691Z,100918.84
2022-08-26T12:00:52.837Z,100913.63
2022-08-26T12:01:57.353Z,100915.31
2022-08-26T12:03:06.114Z,100914.50
2022-08-26T12:04:12.411Z,100915.06
2022-08-26T12:05:30.904Z,100909.34
2022-08-26T12:06:43.345Z,100912.09
2022-08-26T12:07:53.104Z,100913.69
2022-08-26T12:08:58.099Z,100904.97
2022-08-26T12:10:03.547Z,100906.69
2022-08-26T12:11:07.627Z,100901.03
2022-08-26T12:12:13.257Z,100895.91
2022-08-26T12:13:23.470Z,100898.72
2022-08-26T12:14:27.827Z,100898.81
2022-08-26T12:15:32.903Z,100904.38
2022-08-26T12:16:39.843Z,100907.53
2022-08-26T12:17:43.300Z,100902.75
2022-08-26T12:18:46.528Z,100910.84
2022-08-26T12:19:49.675Z,100907.78
2022-08-26T12:20:54.333Z,100914.09
2022-08-26T12:22:02.758Z,100917.97
2022-08-26T12:23:07.667Z,100913.59
2022-08-26T12:24:10.882Z,100913.59
2022-08-26T12:25:13.169Z,100916.63
2022-08-26T12:26:25.569Z,100910.84
2022-08-26T12:27:30.376Z,100913.59
2022-08-26T12:28:33.746Z,100903.72
2022-08-26T12:29:36.055Z,100908.72
2022-08-26T12:30:39.520Z,100908.72
2022-08-26T12:31:45.166Z,100909.84
2022-08-26T12:32:56.665Z,100910.97
2022-08-26T12:34:04.220Z,100908.81
2022-08-26T12:35:09.292Z,100904.78
2022-08-26T12:36:18.423Z,100907.84
2022-08-26T12:37:21.733Z,100913.34
2022-08-26T12:38:28.112Z,100902.34
2022-08-26T12:39:34.414Z,100902.84
2022-08-26T12:40:43.288Z,100896.72
2022-08-26T12:41:53.039Z,100907.09